createdAt,value
2023-06-25T00:00:11.772Z,655.00
2023-06-25T00:01:10.154Z,657.00
2023-06-25T00:02:10.125Z,656.00
2023-06-25T00:03:11.215Z,652.00
2023-06-25T00:04:10.137Z,652.00
2023-06-25T00:05:11.147Z,652.00
2023-06-25T00:06:11.162Z,650.00
2023-06-25T00:07:10.205Z,651.00
2023-06-25T00:08:11.161Z,654.00
2023-06-25T00:09:11.178Z,654.00
2023-06-25T00:10:11.154Z,652.00
2023-06-25T00:11:10.197Z,650.00
2023-06-25T00:12:10.176Z,649.00
2023-06-25T00:13:11.176Z,651.00
2023-06-25T00:14:11.163Z,654.00
2023-06-25T00:15:11.210Z,655.00
2023-06-25T00:16:10.194Z,656.00
2023-06-25T00:17:10.191Z,656.00
2023-06-25T00:18:10.193Z,658.00
2023-06-25T00:19:11.198Z,658.00
2023-06-25T00:20:11.217Z,656.00
2023-06-25T00:21:11.218Z,658.00
2023-06-25T00:22:11.238Z,655.00
2023-06-25T00:23:11.254Z,657.00
2023-06-25T00:24:10.234Z,656.00
2023-06-25T00:25:11.263Z,652.00
2023-06-25T00:26:11.308Z,650.00
2023-06-25T00:27:10.349Z,651.00
2023-06-25T00:28:11.366Z,650.00
2023-06-25T00:29:11.368Z,653.00
2023-06-25T00:30:11.377Z,655.00
2023-06-25T00:31:10.423Z,657.00
2023-06-25T00:32:11.409Z,654.00
2023-06-25T00:33:11.407Z,651.00
2023-06-25T00:34:11.454Z,651.00
2023-06-25T00:35:10.442Z,652.00
2023-06-25T00:36:10.474Z,654.00
2023-06-25T00:37:10.460Z,653.00
2023-06-25T00:38:11.487Z,651.00
2023-06-25T00:39:11.491Z,651.00
2023-06-25T00:40:11.520Z,651.00
2023-06-25T00:41:10.515Z,649.00
2023-06-25T00:42:10.521Z,649.00
2023-06-25T00:43:10.545Z,651.00
2023-06-25T00:44:11.546Z,650.00
2023-06-25T00:45:10.545Z,647.00
2023-06-25T00:46:10.571Z,650.00
2023-06-25T00:47:10.594Z,650.00
2023-06-25T00:48:11.575Z,650.00
2023-06-25T00:49:10.564Z,649.00
2023-06-25T00:50:11.581Z,648.00
2023-06-25T00:51:11.584Z,648.00
2023-06-25T00:52:10.609Z,649.00
2023-06-25T00:53:11.608Z,649.00
2023-06-25T00:54:11.597Z,650.00
2023-06-25T00:55:10.608Z,651.00
2023-06-25T00:56:11.613Z,650.00
2023-06-25T00:57:10.611Z,647.00
2023-06-25T00:58:11.918Z,648.00
2023-06-25T00:59:11.661Z,649.00
2023-06-25T01:00:11.668Z,649.00
2023-06-25T01:01:10.691Z,649.00
2023-06-25T01:02:11.680Z,652.00
2023-06-25T01:03:11.817Z,653.00
2023-06-25T01:04:11.735Z,654.00
2023-06-25T01:05:11.672Z,658.00
2023-06-25T01:06:13.885Z,659.00
2023-06-25T01:07:11.771Z,660.00
2023-06-25T01:08:11.667Z,658.00
2023-06-25T01:09:10.653Z,659.00
2023-06-25T01:10:10.651Z,657.00
2023-06-25T01:11:12.335Z,658.00
2023-06-25T01:12:11.642Z,655.00
2023-06-25T01:13:11.635Z,652.00
2023-06-25T01:14:10.634Z,653.00
2023-06-25T01:15:10.626Z,652.00
2023-06-25T01:16:10.638Z,651.00
2023-06-25T01:17:11.622Z,652.00
2023-06-25T01:18:11.598Z,651.00
2023-06-25T01:19:11.617Z,650.00
2023-06-25T01:20:11.608Z,650.00
2023-06-25T01:21:10.589Z,652.00
2023-06-25T01:22:11.602Z,650.00
2023-06-25T01:23:11.554Z,649.00
2023-06-25T01:24:10.552Z,648.00
2023-06-25T01:25:11.576Z,646.00
2023-06-25T01:26:10.555Z,648.00
2023-06-25T01:27:11.547Z,648.00
2023-06-25T01:28:11.545Z,647.00
2023-06-25T01:29:11.533Z,649.00
2023-06-25T01:30:11.514Z,651.00
2023-06-25T01:31:11.535Z,651.00
2023-06-25T01:32:11.548Z,650.00
2023-06-25T01:33:11.491Z,650.00
2023-06-25T01:34:10.506Z,653.00
2023-06-25T01:35:11.516Z,651.00
2023-06-25T01:36:11.490Z,651.00
2023-06-25T01:37:11.483Z,652.00
2023-06-25T01:38:10.458Z,647.00
2023-06-25T01:39:11.463Z,648.00
2023-06-25T01:40:10.481Z,650.00
2023-06-25T01:41:10.441Z,648.00
2023-06-25T01:42:10.446Z,646.00
2023-06-25T01:43:11.443Z,648.00
2023-06-25T01:44:10.421Z,647.00
2023-06-25T01:45:10.421Z,643.00
2023-06-25T01:46:10.443Z,643.00
2023-06-25T01:47:10.412Z,642.00
2023-06-25T01:48:10.408Z,644.00
2023-06-25T01:49:23.076Z,645.00
2023-06-25T01:50:11.384Z,645.00
2023-06-25T01:51:10.400Z,645.00
2023-06-25T01:52:11.395Z,647.00
2023-06-25T01:53:11.378Z,644.00
2023-06-25T01:54:11.370Z,644.00
2023-06-25T01:55:10.360Z,644.00
2023-06-25T01:56:11.358Z,645.00
2023-06-25T01:57:10.354Z,645.00
2023-06-25T01:58:11.362Z,644.00
2023-06-25T01:59:10.338Z,642.00
2023-06-25T02:00:10.328Z,642.00
2023-06-25T02:01:11.365Z,643.00
2023-06-25T02:02:11.309Z,643.00
2023-06-25T02:03:11.391Z,646.00
2023-06-25T02:04:11.314Z,649.00
2023-06-25T02:05:11.294Z,650.00
2023-06-25T02:06:11.288Z,652.00
2023-06-25T02:07:11.319Z,649.00
2023-06-25T02:08:11.272Z,649.00
2023-06-25T02:09:11.265Z,648.00
2023-06-25T02:10:11.257Z,645.00
2023-06-25T02:11:11.249Z,644.00
2023-06-25T02:12:10.263Z,643.00
2023-06-25T02:13:10.252Z,645.00
2023-06-25T02:14:11.252Z,644.00
2023-06-25T02:15:10.244Z,644.00
2023-06-25T02:16:10.237Z,643.00
2023-06-25T02:17:11.226Z,643.00
2023-06-25T02:18:10.218Z,643.00
2023-06-25T02:19:11.218Z,642.00
2023-06-25T02:20:11.204Z,638.00
2023-06-25T02:21:10.210Z,638.00
2023-06-25T02:22:11.201Z,638.00
2023-06-25T02:23:11.216Z,641.00
2023-06-25T02:24:10.198Z,642.00
2023-06-25T02:25:11.191Z,643.00
2023-06-25T02:26:10.160Z,643.00
2023-06-25T02:27:11.177Z,644.00
2023-06-25T02:28:10.160Z,644.00
2023-06-25T02:29:11.152Z,643.00
2023-06-25T02:30:10.149Z,643.00
2023-06-25T02:31:11.196Z,644.00
2023-06-25T02:32:10.125Z,645.00
2023-06-25T02:33:10.186Z,644.00
2023-06-25T02:34:11.133Z,643.00
2023-06-25T02:35:10.113Z,642.00
2023-06-25T02:36:10.115Z,641.00
2023-06-25T02:37:10.096Z,639.00
2023-06-25T02:38:11.096Z,640.00
2023-06-25T02:39:11.116Z,640.00
2023-06-25T02:40:11.071Z,640.00
2023-06-25T02:41:11.072Z,639.00
2023-06-25T02:42:10.071Z,639.00
2023-06-25T02:43:11.046Z,642.00
2023-06-25T02:44:11.056Z,644.00
2023-06-25T02:45:11.043Z,642.00
2023-06-25T02:46:11.050Z,641.00
2023-06-25T02:47:11.166Z,639.00
2023-06-25T02:48:11.019Z,641.00
2023-06-25T02:49:11.040Z,641.00
2023-06-25T02:50:10.010Z,641.00
2023-06-25T02:51:10.022Z,640.00
2023-06-25T02:52:10.005Z,638.00
2023-06-25T02:53:09.998Z,639.00
2023-06-25T02:54:09.987Z,638.00
2023-06-25T02:55:09.997Z,638.00
2023-06-25T02:56:10.970Z,637.00
2023-06-25T02:57:09.992Z,636.00
2023-06-25T02:58:09.990Z,638.00
2023-06-25T02:59:09.938Z,638.00
2023-06-25T03:00:09.950Z,637.00
2023-06-25T03:01:09.939Z,636.00
2023-06-25T03:02:10.941Z,636.00
2023-06-25T03:03:11.037Z,640.00
2023-06-25T03:04:10.932Z,640.00
2023-06-25T03:05:09.907Z,640.00
2023-06-25T03:06:10.905Z,640.00
2023-06-25T03:07:10.021Z,643.00
2023-06-25T03:08:09.889Z,644.00
2023-06-25T03:09:10.928Z,644.00
2023-06-25T03:10:09.942Z,641.00
2023-06-25T03:11:10.999Z,642.00
2023-06-25T03:12:09.998Z,641.00
2023-06-25T03:13:10.003Z,640.00
2023-06-25T03:14:18.772Z,641.00
2023-06-25T03:15:11.052Z,642.00
2023-06-25T03:16:11.039Z,644.00
2023-06-25T03:17:11.026Z,642.00
2023-06-25T03:18:09.999Z,641.00
2023-06-25T03:19:10.996Z,638.00
2023-06-25T03:20:09.989Z,640.00
2023-06-25T03:21:10.991Z,642.00
2023-06-25T03:22:09.995Z,640.00
2023-06-25T03:23:10.962Z,640.00
2023-06-25T03:24:11.609Z,640.00
2023-06-25T03:25:10.980Z,637.00
2023-06-25T03:26:10.947Z,637.00
2023-06-25T03:27:10.990Z,637.00
2023-06-25T03:28:10.946Z,638.00
2023-06-25T03:29:09.935Z,637.00
2023-06-25T03:30:10.948Z,635.00
2023-06-25T03:31:10.957Z,632.00
2023-06-25T03:32:09.926Z,632.00
2023-06-25T03:33:10.927Z,634.00
2023-06-25T03:34:09.910Z,631.00
2023-06-25T03:35:10.915Z,626.00
2023-06-25T03:36:10.894Z,628.00
2023-06-25T03:37:10.884Z,629.00
2023-06-25T03:38:10.888Z,630.00
2023-06-25T03:39:10.872Z,629.00
2023-06-25T03:40:10.875Z,629.00
2023-06-25T03:41:10.869Z,629.00
2023-06-25T03:42:10.873Z,629.00
2023-06-25T03:43:10.888Z,629.00
2023-06-25T03:44:09.833Z,627.00
2023-06-25T03:45:09.856Z,624.00
2023-06-25T03:46:09.817Z,625.00
2023-06-25T03:47:10.858Z,629.00
2023-06-25T03:48:09.880Z,629.00
2023-06-25T03:49:10.804Z,630.00
2023-06-25T03:50:10.808Z,629.00
2023-06-25T03:51:10.811Z,629.00
2023-06-25T03:52:10.802Z,632.00
2023-06-25T03:53:09.789Z,634.00
2023-06-25T03:54:10.798Z,635.00
2023-06-25T03:55:10.769Z,634.00
2023-06-25T03:56:09.797Z,631.00
2023-06-25T03:57:09.783Z,630.00
2023-06-25T03:58:10.764Z,630.00
2023-06-25T03:59:10.814Z,628.00
2023-06-25T04:00:09.835Z,627.00
2023-06-25T04:01:10.820Z,632.00
2023-06-25T04:02:09.930Z,628.00
2023-06-25T04:03:09.907Z,628.00
2023-06-25T04:04:10.893Z,629.00
2023-06-25T04:05:09.888Z,628.00
2023-06-25T04:06:10.923Z,633.00
2023-06-25T04:07:11.001Z,636.00
2023-06-25T04:08:10.958Z,635.00
2023-06-25T04:09:11.012Z,633.00
2023-06-25T04:10:11.024Z,633.00
2023-06-25T04:11:11.054Z,637.00
2023-06-25T04:12:10.072Z,639.00
2023-06-25T04:13:11.102Z,638.00
2023-06-25T04:14:10.123Z,637.00
2023-06-25T04:15:11.159Z,636.00
2023-06-25T04:16:10.157Z,634.00
2023-06-25T04:17:10.171Z,634.00
2023-06-25T04:18:11.185Z,633.00
2023-06-25T04:19:11.207Z,632.00
2023-06-25T04:20:10.206Z,630.00
2023-06-25T04:21:11.213Z,631.00
2023-06-25T04:22:11.275Z,632.00
2023-06-25T04:23:11.236Z,630.00
2023-06-25T04:24:11.252Z,630.00
2023-06-25T04:25:11.283Z,629.00
2023-06-25T04:26:11.301Z,629.00
2023-06-25T04:27:10.325Z,627.00
2023-06-25T04:28:11.363Z,624.00
2023-06-25T04:29:11.352Z,627.00
2023-06-25T04:30:10.383Z,628.00
2023-06-25T04:31:10.421Z,628.00
2023-06-25T04:32:10.459Z,628.00
2023-06-25T04:33:11.477Z,627.00
2023-06-25T04:34:11.479Z,624.00
2023-06-25T04:35:11.499Z,624.00
2023-06-25T04:36:11.515Z,625.00
2023-06-25T04:37:10.527Z,623.00
2023-06-25T04:38:11.562Z,623.00
2023-06-25T04:39:10.605Z,623.00
2023-06-25T04:40:11.596Z,618.00
2023-06-25T04:41:10.629Z,617.00
2023-06-25T04:42:11.676Z,619.00
2023-06-25T04:43:11.683Z,617.00
2023-06-25T04:44:11.728Z,616.00
2023-06-25T04:45:10.764Z,616.00
2023-06-25T04:46:11.842Z,616.00
2023-06-25T04:47:11.843Z,618.00
2023-06-25T04:48:11.798Z,619.00
2023-06-25T04:49:11.809Z,622.00
2023-06-25T04:50:11.831Z,625.00
2023-06-25T04:51:10.895Z,624.00
2023-06-25T04:52:11.872Z,623.00
2023-06-25T04:53:11.903Z,622.00
2023-06-25T04:54:10.927Z,620.00
2023-06-25T04:55:10.956Z,621.00
2023-06-25T04:56:12.030Z,622.00
2023-06-25T04:57:12.031Z,625.00
2023-06-25T04:58:12.010Z,624.00
2023-06-25T04:59:12.013Z,625.00
2023-06-25T05:00:12.022Z,625.00
2023-06-25T05:01:12.099Z,623.00
2023-06-25T05:02:12.088Z,624.00
2023-06-25T05:03:11.231Z,624.00
2023-06-25T05:04:12.175Z,625.00
2023-06-25T05:05:11.172Z,625.00
2023-06-25T05:06:11.200Z,622.00
2023-06-25T05:07:12.235Z,620.00
2023-06-25T05:08:11.244Z,618.00
2023-06-25T05:09:11.290Z,618.00
2023-06-25T05:10:12.280Z,619.00
2023-06-25T05:11:12.292Z,621.00
2023-06-25T05:12:12.286Z,619.00
2023-06-25T05:13:12.292Z,621.00
2023-06-25T05:14:11.319Z,621.00
2023-06-25T05:15:11.361Z,621.00
2023-06-25T05:16:12.385Z,617.00
2023-06-25T05:17:12.415Z,617.00
2023-06-25T05:18:12.418Z,616.00
2023-06-25T05:19:12.455Z,615.00
2023-06-25T05:20:12.451Z,618.00
2023-06-25T05:21:11.485Z,616.00
2023-06-25T05:22:12.525Z,617.00
2023-06-25T05:23:11.533Z,618.00
2023-06-25T05:24:12.543Z,618.00
2023-06-25T05:25:11.566Z,618.00
2023-06-25T05:26:12.602Z,619.00
2023-06-25T05:27:12.647Z,619.00
2023-06-25T05:28:12.655Z,615.00
2023-06-25T05:29:12.668Z,613.00
2023-06-25T05:30:12.737Z,611.00
2023-06-25T05:31:12.704Z,612.00
2023-06-25T05:32:11.724Z,612.00
2023-06-25T05:33:12.769Z,613.00
2023-06-25T05:34:12.762Z,613.00
2023-06-25T05:35:11.799Z,614.00
2023-06-25T05:36:12.814Z,613.00
2023-06-25T05:37:11.826Z,613.00
2023-06-25T05:38:11.849Z,613.00
2023-06-25T05:39:12.872Z,612.00
2023-06-25T05:40:11.872Z,612.00
2023-06-25T05:41:12.922Z,612.00
2023-06-25T05:42:11.946Z,614.00
2023-06-25T05:43:12.948Z,615.00
2023-06-25T05:44:12.961Z,617.00
2023-06-25T05:45:12.975Z,617.00
2023-06-25T05:46:12.982Z,617.00
2023-06-25T05:47:13.035Z,613.00
2023-06-25T05:48:13.003Z,615.00
2023-06-25T05:49:11.994Z,615.00
2023-06-25T05:50:13.011Z,614.00
2023-06-25T05:51:12.045Z,616.00
2023-06-25T05:52:13.035Z,617.00
2023-06-25T05:53:13.080Z,618.00
2023-06-25T05:54:12.091Z,620.00
2023-06-25T05:55:12.101Z,621.00
2023-06-25T05:56:16.512Z,620.00
2023-06-25T05:57:12.137Z,622.00
2023-06-25T05:58:12.120Z,619.00
2023-06-25T05:59:13.130Z,615.00
2023-06-25T06:00:12.110Z,616.00
2023-06-25T06:01:13.125Z,615.00
2023-06-25T06:02:12.104Z,613.00
2023-06-25T06:03:12.151Z,616.00
2023-06-25T06:04:13.067Z,617.00
2023-06-25T06:05:12.067Z,618.00
2023-06-25T06:06:13.053Z,616.00
2023-06-25T06:07:13.113Z,616.00
2023-06-25T06:08:12.046Z,616.00
2023-06-25T06:09:13.045Z,617.00
2023-06-25T06:10:13.047Z,615.00
2023-06-25T06:11:13.039Z,615.00
2023-06-25T06:12:13.026Z,613.00
2023-06-25T06:13:13.047Z,616.00
2023-06-25T06:14:13.005Z,614.00
2023-06-25T06:15:12.003Z,616.00
2023-06-25T06:16:12.993Z,614.00
2023-06-25T06:17:12.993Z,614.00
2023-06-25T06:18:13.011Z,611.00
2023-06-25T06:19:11.983Z,609.00
2023-06-25T06:20:11.965Z,608.00
2023-06-25T06:21:12.968Z,610.00
2023-06-25T06:22:12.978Z,608.00
2023-06-25T06:23:12.986Z,608.00
2023-06-25T06:24:12.941Z,609.00
2023-06-25T06:25:12.935Z,612.00
2023-06-25T06:26:12.952Z,616.00
2023-06-25T06:27:11.974Z,616.00
2023-06-25T06:28:12.996Z,614.00
2023-06-25T06:29:13.006Z,612.00
2023-06-25T06:30:13.044Z,612.00
2023-06-25T06:31:13.149Z,614.00
2023-06-25T06:32:12.081Z,615.00
2023-06-25T06:33:12.110Z,617.00
2023-06-25T06:34:12.120Z,615.00
2023-06-25T06:35:12.131Z,617.00
2023-06-25T06:36:12.153Z,615.00
2023-06-25T06:37:12.158Z,612.00
2023-06-25T06:38:13.192Z,612.00
2023-06-25T06:39:13.228Z,611.00
2023-06-25T06:40:13.206Z,611.00
2023-06-25T06:41:12.221Z,612.00
2023-06-25T06:42:13.258Z,612.00
2023-06-25T06:43:13.259Z,605.00
2023-06-25T06:44:13.261Z,603.00
2023-06-25T06:45:13.302Z,601.00
2023-06-25T06:46:12.297Z,604.00
2023-06-25T06:47:13.349Z,603.00
2023-06-25T06:48:12.335Z,606.00
2023-06-25T06:49:13.375Z,608.00
2023-06-25T06:50:12.374Z,607.00
2023-06-25T06:51:12.392Z,608.00
2023-06-25T06:52:12.367Z,608.00
2023-06-25T06:53:12.385Z,611.00
2023-06-25T06:54:13.379Z,612.00
2023-06-25T06:55:13.450Z,615.00
2023-06-25T06:56:12.408Z,610.00
2023-06-25T06:57:12.460Z,607.00
2023-06-25T06:58:12.435Z,604.00
2023-06-25T06:59:13.445Z,603.00
2023-06-25T07:00:13.457Z,601.00
2023-06-25T07:01:12.523Z,601.00
2023-06-25T07:02:12.528Z,602.00
2023-06-25T07:03:12.541Z,605.00
2023-06-25T07:04:13.879Z,605.00
2023-06-25T07:05:12.562Z,609.00
2023-06-25T07:06:12.538Z,612.00
2023-06-25T07:07:13.577Z,611.00
2023-06-25T07:08:12.547Z,607.00
2023-06-25T07:09:13.543Z,602.00
2023-06-25T07:10:12.518Z,604.00
2023-06-25T07:11:13.520Z,601.00
2023-06-25T07:12:12.489Z,601.00
2023-06-25T07:13:12.493Z,602.00
2023-06-25T07:14:13.480Z,605.00
2023-06-25T07:15:13.485Z,601.00
2023-06-25T07:16:13.475Z,601.00
2023-06-25T07:17:13.453Z,599.00
2023-06-25T07:18:13.455Z,596.00
2023-06-25T07:19:12.441Z,597.00
2023-06-25T07:20:13.447Z,597.00
2023-06-25T07:21:12.433Z,595.00
2023-06-25T07:22:12.433Z,595.00
2023-06-25T07:23:12.430Z,594.00
2023-06-25T07:24:12.436Z,597.00
2023-06-25T07:25:12.412Z,598.00
2023-06-25T07:26:13.419Z,599.00
2023-06-25T07:27:13.417Z,601.00
2023-06-25T07:28:13.410Z,601.00
2023-06-25T07:29:13.406Z,602.00
2023-06-25T07:30:13.379Z,599.00
2023-06-25T07:31:12.428Z,599.00
2023-06-25T07:32:13.403Z,598.00
2023-06-25T07:33:13.368Z,599.00
2023-06-25T07:34:12.345Z,599.00
2023-06-25T07:35:12.692Z,600.00
2023-06-25T07:36:13.346Z,600.00
2023-06-25T07:37:13.321Z,600.00
2023-06-25T07:38:13.352Z,606.00
2023-06-25T07:39:12.329Z,606.00
2023-06-25T07:40:13.311Z,607.00
2023-06-25T07:41:12.302Z,605.00
2023-06-25T07:42:12.291Z,602.00
2023-06-25T07:43:12.311Z,598.00
2023-06-25T07:44:23.477Z,599.00
2023-06-25T07:45:13.269Z,599.00
2023-06-25T07:46:13.335Z,600.00
2023-06-25T07:47:12.282Z,600.00
2023-06-25T07:48:12.263Z,600.00
2023-06-25T07:49:13.229Z,597.00
2023-06-25T07:50:13.253Z,598.00
2023-06-25T07:51:13.254Z,597.00
2023-06-25T07:52:12.230Z,597.00
2023-06-25T07:53:13.217Z,597.00
2023-06-25T07:54:13.215Z,601.00
2023-06-25T07:55:12.187Z,601.00
2023-06-25T07:56:13.193Z,601.00
2023-06-25T07:57:13.204Z,599.00
2023-06-25T07:58:12.186Z,596.00
2023-06-25T07:59:12.199Z,598.00
2023-06-25T08:00:12.174Z,597.00
2023-06-25T08:01:13.151Z,596.00
2023-06-25T08:02:13.182Z,594.00
2023-06-25T08:03:13.256Z,595.00
2023-06-25T08:04:13.561Z,598.00
2023-06-25T08:05:13.142Z,597.00
2023-06-25T08:06:13.125Z,597.00
2023-06-25T08:07:12.161Z,594.00
2023-06-25T08:08:12.152Z,595.00
2023-06-25T08:09:13.173Z,594.00
2023-06-25T08:10:13.111Z,593.00
2023-06-25T08:11:12.108Z,596.00
2023-06-25T08:12:12.112Z,597.00
2023-06-25T08:13:13.149Z,598.00
2023-06-25T08:14:13.183Z,600.00
2023-06-25T08:15:13.209Z,599.00
2023-06-25T08:16:12.209Z,598.00
2023-06-25T08:17:12.222Z,599.00
2023-06-25T08:18:12.213Z,600.00
2023-06-25T08:19:13.228Z,596.00
2023-06-25T08:20:12.269Z,596.00
2023-06-25T08:21:12.262Z,595.00
2023-06-25T08:22:13.298Z,595.00
2023-06-25T08:23:12.287Z,596.00
2023-06-25T08:24:12.301Z,597.00
2023-06-25T08:25:12.328Z,598.00
2023-06-25T08:26:12.346Z,597.00
2023-06-25T08:27:12.323Z,595.00
2023-06-25T08:28:13.358Z,594.00
2023-06-25T08:29:12.339Z,593.00
2023-06-25T08:30:12.358Z,593.00
2023-06-25T08:31:12.434Z,591.00
2023-06-25T08:32:12.406Z,592.00
2023-06-25T08:33:13.389Z,588.00
2023-06-25T08:34:13.424Z,588.00
2023-06-25T08:35:13.398Z,588.00
2023-06-25T08:36:13.412Z,592.00
2023-06-25T08:37:12.421Z,590.00
2023-06-25T08:38:13.484Z,588.00
2023-06-25T08:39:13.495Z,590.00
2023-06-25T08:40:13.633Z,590.00
2023-06-25T08:41:13.559Z,590.00
2023-06-25T08:42:12.576Z,590.00
2023-06-25T08:43:12.602Z,587.00
2023-06-25T08:44:12.591Z,588.00
2023-06-25T08:45:13.651Z,588.00
2023-06-25T08:46:12.712Z,587.00
2023-06-25T08:47:13.713Z,590.00
2023-06-25T08:48:12.821Z,591.00
2023-06-25T08:49:13.762Z,591.00
2023-06-25T08:50:13.792Z,589.00
2023-06-25T08:51:12.838Z,589.00
2023-06-25T08:52:13.896Z,587.00
2023-06-25T08:53:13.921Z,588.00
2023-06-25T08:54:13.953Z,588.00
2023-06-25T08:55:12.985Z,585.00
2023-06-25T08:56:14.027Z,586.00
2023-06-25T08:57:13.074Z,585.00
2023-06-25T08:58:14.102Z,582.00
2023-06-25T08:59:14.126Z,581.00
2023-06-25T09:00:13.176Z,582.00
2023-06-25T09:01:14.247Z,583.00
2023-06-25T09:02:13.269Z,582.00
2023-06-25T09:03:14.297Z,584.00
2023-06-25T09:04:13.189Z,585.00
2023-06-25T09:05:14.192Z,587.00
2023-06-25T09:06:13.204Z,586.00
2023-06-25T09:07:14.280Z,583.00
2023-06-25T09:08:13.296Z,584.00
2023-06-25T09:09:13.336Z,583.00
2023-06-25T09:10:14.461Z,580.00
2023-06-25T09:11:14.412Z,580.00
2023-06-25T09:12:14.404Z,583.00
2023-06-25T09:13:14.835Z,582.00
2023-06-25T09:14:14.428Z,581.00
2023-06-25T09:15:13.431Z,581.00
2023-06-25T09:16:13.429Z,582.00
2023-06-25T09:17:14.427Z,579.00
2023-06-25T09:18:14.455Z,579.00
2023-06-25T09:19:13.466Z,579.00
2023-06-25T09:20:14.497Z,582.00
2023-06-25T09:21:13.442Z,582.00
2023-06-25T09:22:14.461Z,583.00
2023-06-25T09:23:13.484Z,583.00
2023-06-25T09:24:14.490Z,582.00
2023-06-25T09:25:14.464Z,581.00
2023-06-25T09:26:15.218Z,582.00
2023-06-25T09:27:14.470Z,584.00
2023-06-25T09:28:14.515Z,584.00
2023-06-25T09:29:14.486Z,580.00
2023-06-25T09:30:14.491Z,578.00
2023-06-25T09:31:14.539Z,579.00
2023-06-25T09:32:13.530Z,583.00
2023-06-25T09:33:13.593Z,588.00
2023-06-25T09:34:14.500Z,590.00
2023-06-25T09:35:14.543Z,592.00
2023-06-25T09:36:31.005Z,590.00
2023-06-25T09:37:14.508Z,585.00
2023-06-25T09:38:14.545Z,586.00
2023-06-25T09:39:13.481Z,586.00
2023-06-25T09:40:13.482Z,586.00
2023-06-25T09:41:14.486Z,587.00
2023-06-25T09:42:14.461Z,585.00
2023-06-25T09:43:14.466Z,584.00
2023-06-25T09:44:13.474Z,581.00
2023-06-25T09:45:14.453Z,577.00
2023-06-25T09:46:13.451Z,576.00
2023-06-25T09:47:14.420Z,576.00
2023-06-25T09:48:13.432Z,577.00
2023-06-25T09:49:13.427Z,579.00
2023-06-25T09:50:14.420Z,581.00
2023-06-25T09:51:14.430Z,581.00
2023-06-25T09:52:14.415Z,581.00
2023-06-25T09:53:13.391Z,579.00
2023-06-25T09:54:14.415Z,579.00
2023-06-25T09:55:14.381Z,582.00
2023-06-25T09:56:13.411Z,582.00
2023-06-25T09:57:13.359Z,582.00
2023-06-25T09:58:14.368Z,580.00
2023-06-25T09:59:13.375Z,580.00
2023-06-25T10:00:13.346Z,583.00
2023-06-25T10:01:13.438Z,586.00
2023-06-25T10:02:14.418Z,586.00
2023-06-25T10:03:14.432Z,583.00
2023-06-25T10:04:14.375Z,585.00
2023-06-25T10:05:14.315Z,587.00
2023-06-25T10:06:14.313Z,585.00
2023-06-25T10:07:14.372Z,584.00
2023-06-25T10:08:13.306Z,582.00
2023-06-25T10:09:14.307Z,582.00
2023-06-25T10:10:14.315Z,580.00
2023-06-25T10:11:13.293Z,577.00
2023-06-25T10:12:14.279Z,577.00
2023-06-25T10:13:14.276Z,579.00
2023-06-25T10:14:14.281Z,579.00
2023-06-25T10:15:13.292Z,578.00
2023-06-25T10:16:16.128Z,575.00
2023-06-25T10:17:13.281Z,575.00
2023-06-25T10:18:13.327Z,574.00
2023-06-25T10:19:13.263Z,574.00
2023-06-25T10:20:14.280Z,576.00
2023-06-25T10:21:13.404Z,576.00
2023-06-25T10:22:13.250Z,576.00
2023-06-25T10:23:14.241Z,575.00
2023-06-25T10:24:14.219Z,579.00
2023-06-25T10:25:14.193Z,581.00
2023-06-25T10:26:13.218Z,582.00
2023-06-25T10:27:14.182Z,583.00
2023-06-25T10:28:13.197Z,586.00
2023-06-25T10:29:14.191Z,582.00
2023-06-25T10:30:13.197Z,581.00
2023-06-25T10:31:14.325Z,580.00
2023-06-25T10:32:14.201Z,581.00
2023-06-25T10:33:13.288Z,579.00
2023-06-25T10:34:14.163Z,580.00
2023-06-25T10:35:14.146Z,581.00
2023-06-25T10:36:13.147Z,584.00
2023-06-25T10:37:14.132Z,582.00
2023-06-25T10:38:13.143Z,582.00
2023-06-25T10:39:14.151Z,582.00
2023-06-25T10:40:14.242Z,584.00
2023-06-25T10:41:13.114Z,581.00
2023-06-25T10:42:13.123Z,583.00
2023-06-25T10:43:13.088Z,582.00
2023-06-25T10:44:13.104Z,580.00
2023-06-25T10:45:14.064Z,581.00
2023-06-25T10:46:14.059Z,583.00
2023-06-25T10:47:14.174Z,588.00
2023-06-25T10:48:14.075Z,588.00
2023-06-25T10:49:13.066Z,590.00
2023-06-25T10:50:14.092Z,590.00
2023-06-25T10:51:14.049Z,591.00
2023-06-25T10:52:14.019Z,593.00
2023-06-25T10:53:14.020Z,591.00
2023-06-25T10:54:14.028Z,587.00
2023-06-25T10:55:14.090Z,588.00
2023-06-25T10:56:14.037Z,588.00
2023-06-25T10:57:13.061Z,588.00
2023-06-25T10:58:14.007Z,588.00
2023-06-25T10:59:14.003Z,590.00
2023-06-25T11:00:13.024Z,593.00
2023-06-25T11:01:14.007Z,590.00
2023-06-25T11:02:13.997Z,591.00
2023-06-25T11:03:14.158Z,590.00
2023-06-25T11:04:12.964Z,589.00
2023-06-25T11:05:13.941Z,591.00
2023-06-25T11:06:12.948Z,593.00
2023-06-25T11:07:13.954Z,593.00
2023-06-25T11:08:13.932Z,596.00
2023-06-25T11:09:12.910Z,598.00
2023-06-25T11:10:13.917Z,597.00
2023-06-25T11:11:12.971Z,599.00
2023-06-25T11:12:12.926Z,598.00
2023-06-25T11:13:13.918Z,598.00
2023-06-25T11:14:13.953Z,598.00
2023-06-25T11:15:13.930Z,600.00
2023-06-25T11:16:12.947Z,601.00
2023-06-25T11:17:12.946Z,602.00
2023-06-25T11:18:13.989Z,599.00
2023-06-25T11:19:13.999Z,600.00
2023-06-25T11:20:14.001Z,596.00
2023-06-25T11:21:14.028Z,597.00
2023-06-25T11:22:14.038Z,595.00
2023-06-25T11:23:13.027Z,594.00
2023-06-25T11:24:14.035Z,595.00
2023-06-25T11:25:13.132Z,595.00
2023-06-25T11:26:14.105Z,596.00
2023-06-25T11:27:13.121Z,599.00
2023-06-25T11:28:14.139Z,600.00
2023-06-25T11:29:13.166Z,599.00
2023-06-25T11:30:13.189Z,596.00
2023-06-25T11:31:14.223Z,595.00
2023-06-25T11:32:13.239Z,596.00
2023-06-25T11:33:14.314Z,595.00
2023-06-25T11:34:14.261Z,595.00
2023-06-25T11:35:13.279Z,593.00
2023-06-25T11:36:13.270Z,594.00
2023-06-25T11:37:14.314Z,595.00
2023-06-25T11:38:13.369Z,595.00
2023-06-25T11:39:13.387Z,596.00
2023-06-25T11:40:14.429Z,596.00
2023-06-25T11:41:13.471Z,595.00
2023-06-25T11:42:13.534Z,594.00
2023-06-25T11:43:13.567Z,597.00
2023-06-25T11:44:14.581Z,595.00
2023-06-25T11:45:14.625Z,592.00
2023-06-25T11:46:13.662Z,591.00
2023-06-25T11:47:13.695Z,592.00
2023-06-25T11:48:14.774Z,592.00
2023-06-25T11:49:14.795Z,591.00
2023-06-25T11:50:14.840Z,589.00
2023-06-25T11:51:14.901Z,591.00
2023-06-25T11:52:13.951Z,588.00
2023-06-25T11:53:15.144Z,588.00
2023-06-25T11:54:14.091Z,589.00
2023-06-25T11:55:15.251Z,589.00
2023-06-25T11:56:15.231Z,592.00
2023-06-25T11:57:15.282Z,595.00
2023-06-25T11:58:14.360Z,597.00
2023-06-25T11:59:14.422Z,595.00
2023-06-25T12:00:14.479Z,597.00
2023-06-25T12:01:14.512Z,595.00
2023-06-25T12:02:15.626Z,594.00
2023-06-25T12:03:15.710Z,590.00
2023-06-25T12:04:14.750Z,590.00
2023-06-25T12:05:15.734Z,590.00
2023-06-25T12:06:15.802Z,589.00
2023-06-25T12:07:15.940Z,591.00
2023-06-25T12:08:15.914Z,593.00
2023-06-25T12:09:15.968Z,596.00
2023-06-25T12:10:15.024Z,591.00
2023-06-25T12:11:16.080Z,592.00
2023-06-25T12:12:16.143Z,591.00
2023-06-25T12:13:15.203Z,589.00
2023-06-25T12:14:15.230Z,593.00
2023-06-25T12:15:16.328Z,594.00
2023-06-25T12:16:15.329Z,592.00
2023-06-25T12:17:16.424Z,592.00
2023-06-25T12:18:16.456Z,593.00
2023-06-25T12:19:15.511Z,592.00
2023-06-25T12:20:15.541Z,589.00
2023-06-25T12:21:15.580Z,587.00
2023-06-25T12:22:15.632Z,589.00
2023-06-25T12:23:16.682Z,587.00
2023-06-25T12:24:16.768Z,588.00
2023-06-25T12:25:15.804Z,590.00
2023-06-25T12:26:15.842Z,591.00
2023-06-25T12:27:16.887Z,592.00
2023-06-25T12:28:15.948Z,594.00